createdAt,value
2022-12-24T00:04:33.367Z,10.60
2022-12-24T00:10:35.260Z,10.44
2022-12-24T00:16:37.242Z,10.37
2022-12-24T00:22:39.173Z,10.29
2022-12-24T00:28:41.355Z,10.07
2022-12-24T00:34:43.256Z,10.15
2022-12-24T00:40:45.137Z,10.13
2022-12-24T00:46:47.101Z,10.20
2022-12-24T00:52:49.409Z,10.05
2022-12-24T00:58:51.796Z,9.97
2022-12-24T01:05:12.148Z,10.09
2022-12-24T01:11:14.320Z,10.02
2022-12-24T01:17:16.308Z,9.95
2022-12-24T01:23:18.201Z,9.84
2022-12-24T01:29:20.318Z,9.94
2022-12-24T01:35:22.297Z,9.91
2022-12-24T01:41:43.557Z,9.97
2022-12-24T01:47:45.459Z,9.76
2022-12-24T01:53:58.574Z,9.80
2022-12-24T02:00:06.683Z,9.76
2022-12-24T02:06:11.857Z,9.75
2022-12-24T02:12:13.826Z,9.77
2022-12-24T02:19:04.134Z,9.64
2022-12-24T02:25:17.700Z,9.84
2022-12-24T02:31:37.685Z,9.76
2022-12-24T02:38:03.131Z,9.72
2022-12-24T02:44:05.400Z,9.78
2022-12-24T02:50:10.336Z,9.67
2022-12-24T02:56:45.973Z,9.76
2022-12-24T03:03:09.656Z,9.77
2022-12-24T03:09:44.760Z,9.76
2022-12-24T03:15:48.132Z,9.78
2022-12-24T03:21:51.409Z,9.94
2022-12-24T03:27:56.309Z,9.91
2022-12-24T03:33:58.257Z,9.85
2022-12-24T03:40:00.176Z,9.64
2022-12-24T03:46:07.910Z,9.57
2022-12-24T03:52:12.877Z,9.62
2022-12-24T03:58:14.756Z,9.58
2022-12-24T04:04:16.674Z,9.71
2022-12-24T04:10:18.668Z,9.84
2022-12-24T04:16:20.702Z,9.81
2022-12-24T04:22:22.683Z,9.79
2022-12-24T04:28:24.559Z,9.76
2022-12-24T04:34:27.578Z,9.81
2022-12-24T04:40:29.583Z,9.81
2022-12-24T04:46:31.670Z,9.77
2022-12-24T04:52:34.717Z,9.84
2022-12-24T04:58:38.144Z,9.73
2022-12-24T05:04:40.172Z,9.69
2022-12-24T05:10:42.046Z,9.69
2022-12-24T05:16:44.048Z,9.58
2022-12-24T05:23:04.369Z,9.53
2022-12-24T05:29:12.056Z,9.53
2022-12-24T05:35:14.005Z,9.64
2022-12-24T05:41:16.375Z,9.58
2022-12-24T05:47:18.263Z,9.53
2022-12-24T05:53:20.909Z,9.51
2022-12-24T05:59:22.870Z,9.53
2022-12-24T06:05:25.262Z,9.38
2022-12-24T06:11:28.518Z,9.38
2022-12-24T06:17:30.434Z,9.38
2022-12-24T06:23:35.666Z,9.40
2022-12-24T06:29:37.546Z,9.36
2022-12-24T06:35:39.428Z,9.29
2022-12-24T06:41:41.315Z,9.29
2022-12-24T06:47:43.387Z,9.33
2022-12-24T06:53:45.794Z,9.25
2022-12-24T06:59:47.677Z,9.11
2022-12-24T07:05:49.563Z,9.09
2022-12-24T07:11:51.527Z,9.08
2022-12-24T07:17:54.496Z,8.94
2022-12-24T07:23:56.433Z,8.98
2022-12-24T07:29:58.310Z,8.99
2022-12-24T07:36:03.640Z,9.03
2022-12-24T07:42:07.940Z,9.08
2022-12-24T07:48:09.930Z,9.03
2022-12-24T07:54:11.809Z,9.05
2022-12-24T08:00:14.236Z,9.33
2022-12-24T08:06:16.116Z,9.03
2022-12-24T08:12:18.039Z,8.87
2022-12-24T08:18:20.009Z,8.98
2022-12-24T08:24:22.034Z,9.04
2022-12-24T08:30:23.912Z,9.05
2022-12-24T08:36:25.789Z,9.30
2022-12-24T08:42:27.730Z,9.30
2022-12-24T08:48:29.749Z,9.56
2022-12-24T08:54:31.712Z,9.49
2022-12-24T09:00:33.903Z,9.38
2022-12-24T09:06:36.448Z,9.39
2022-12-24T09:12:38.925Z,9.66
2022-12-24T09:18:41.182Z,9.67
2022-12-24T09:24:43.154Z,9.44
2022-12-24T09:30:45.077Z,9.30
2022-12-24T09:36:46.989Z,9.70
2022-12-24T09:42:54.411Z,9.59
2022-12-24T09:49:02.424Z,9.71
2022-12-24T09:55:28.341Z,9.86
2022-12-24T10:01:33.737Z,9.89
2022-12-24T10:08:04.560Z,9.87
2022-12-24T10:14:46.677Z,9.79
2022-12-24T10:21:50.626Z,9.63
2022-12-24T10:27:55.848Z,9.73
2022-12-24T10:34:05.287Z,9.70
2022-12-24T10:40:14.603Z,9.81
2022-12-24T10:46:19.733Z,9.71
2022-12-24T10:52:27.538Z,9.82
2022-12-24T10:58:30.508Z,10.06
2022-12-24T11:04:45.507Z,10.12
2022-12-24T11:11:14.105Z,10.26
2022-12-24T11:17:23.253Z,10.38
2022-12-24T11:23:25.593Z,10.58
2022-12-24T11:29:28.855Z,10.58
2022-12-24T11:35:39.073Z,10.37
2022-12-24T11:41:42.115Z,10.34
2022-12-24T11:47:44.011Z,10.28
2022-12-24T11:54:22.814Z,10.34
2022-12-24T12:00:27.061Z,10.33
2022-12-24T12:06:49.342Z,10.52
2022-12-24T12:13:15.632Z,10.85
2022-12-24T12:19:22.912Z,10.87
2022-12-24T12:25:51.955Z,11.00
2022-12-24T12:32:02.538Z,11.09
2022-12-24T12:38:12.212Z,11.17
2022-12-24T12:44:49.144Z,11.27
2022-12-24T12:51:08.043Z,11.26
2022-12-24T12:57:15.876Z,11.21
2022-12-24T13:03:50.616Z,11.03
2022-12-24T13:10:26.106Z,10.88
2022-12-24T13:17:06.153Z,11.12
2022-12-24T13:23:22.635Z,11.17
2022-12-24T13:29:36.656Z,11.09
2022-12-24T13:35:59.470Z,11.12
2022-12-24T13:42:01.386Z,10.98
2022-12-24T13:48:05.972Z,11.11
2022-12-24T13:54:13.997Z,11.03
2022-12-24T14:00:21.890Z,10.96
2022-12-24T14:06:42.091Z,10.77
2022-12-24T14:12:53.152Z,10.83
2022-12-24T14:19:12.317Z,10.84
2022-12-24T14:25:24.184Z,10.74
2022-12-24T14:31:26.219Z,10.80
2022-12-24T14:37:34.406Z,10.79
2022-12-24T14:44:09.111Z,10.59
2022-12-24T14:50:37.397Z,10.35
2022-12-24T14:56:39.667Z,10.32
2022-12-24T15:02:51.979Z,10.42
2022-12-24T15:08:54.916Z,10.06
2022-12-24T15:14:57.022Z,9.88
2022-12-24T15:21:04.854Z,9.69
2022-12-24T15:27:21.096Z,8.72
2022-12-24T15:33:22.971Z,8.56
2022-12-24T15:39:24.939Z,8.41
2022-12-24T15:45:38.902Z,8.68
2022-12-24T15:51:41.041Z,9.35
2022-12-24T15:57:42.968Z,9.53
2022-12-24T16:03:50.974Z,9.45
2022-12-24T16:10:12.889Z,9.54
2022-12-24T16:16:20.434Z,9.38
2022-12-24T16:22:35.034Z,9.21
2022-12-24T16:28:36.994Z,9.04
2022-12-24T16:34:38.937Z,8.87
2022-12-24T16:40:42.048Z,8.63
2022-12-24T16:46:43.995Z,8.64
2022-12-24T16:52:45.901Z,8.40
2022-12-24T16:58:47.838Z,8.27
2022-12-24T17:04:50.641Z,8.12
2022-12-24T17:10:52.839Z,7.52
2022-12-24T17:16:54.784Z,7.12
2022-12-24T17:22:56.759Z,7.20
2022-12-24T17:28:58.683Z,7.41
2022-12-24T17:35:02.286Z,7.07
2022-12-24T17:41:07.539Z,6.88
2022-12-24T17:47:09.453Z,6.47
2022-12-24T17:53:11.356Z,6.40
2022-12-24T17:59:14.050Z,6.45
2022-12-24T18:05:16.186Z,6.29
2022-12-24T18:11:32.710Z,6.17
2022-12-24T18:17:34.644Z,6.29
2022-12-24T18:23:37.224Z,6.39
2022-12-24T18:29:41.651Z,6.30
2022-12-24T18:35:43.683Z,6.14
2022-12-24T18:41:45.627Z,6.23
2022-12-24T18:47:47.550Z,6.05
2022-12-24T18:53:50.479Z,6.05
2022-12-24T18:59:52.375Z,6.05
2022-12-24T19:05:54.293Z,6.04
2022-12-24T19:11:56.219Z,6.02
2022-12-24T19:17:58.170Z,5.90
2022-12-24T19:24:00.123Z,5.93
2022-12-24T19:30:02.607Z,5.98
2022-12-24T19:36:10.352Z,5.90
2022-12-24T19:42:12.267Z,5.95
2022-12-24T19:48:14.161Z,6.00
2022-12-24T19:54:19.164Z,6.19
2022-12-24T20:00:21.532Z,5.93
2022-12-24T20:06:28.188Z,5.99
2022-12-24T20:12:30.327Z,5.72
2022-12-24T20:18:32.819Z,5.63
2022-12-24T20:24:34.792Z,5.63
2022-12-24T20:30:36.894Z,5.32
2022-12-24T20:36:38.911Z,5.33
2022-12-24T20:42:41.106Z,5.50
2022-12-24T20:48:43.077Z,5.10
2022-12-24T20:54:45.042Z,5.08
2022-12-24T21:00:48.473Z,5.14
2022-12-24T21:06:50.621Z,5.12
2022-12-24T21:12:56.960Z,5.03
2022-12-24T21:18:59.520Z,4.89
2022-12-24T21:25:01.390Z,4.74
2022-12-24T21:31:12.030Z,4.86
2022-12-24T21:37:14.023Z,4.83
2022-12-24T21:43:15.909Z,5.00
2022-12-24T21:49:36.597Z,5.01
2022-12-24T21:55:38.481Z,5.21
2022-12-24T22:01:40.454Z,5.31
2022-12-24T22:08:01.318Z,5.43
2022-12-24T22:14:03.999Z,5.46
2022-12-24T22:20:07.275Z,5.53
2022-12-24T22:26:17.883Z,5.41
2022-12-24T22:32:20.350Z,5.47
2022-12-24T22:38:22.233Z,5.54
2022-12-24T22:44:24.837Z,5.44
2022-12-24T22:50:26.797Z,5.32
2022-12-24T22:56:28.719Z,5.35
2022-12-24T23:02:30.884Z,5.17
2022-12-24T23:08:37.117Z,5.21
2022-12-24T23:14:57.384Z,5.03
2022-12-24T23:21:04.174Z,5.06
2022-12-24T23:27:06.292Z,4.86
2022-12-24T23:33:09.753Z,5.15
2022-12-24T23:39:11.727Z,4.72
2022-12-24T23:45:13.674Z,4.18
2022-12-24T23:51:23.583Z,4.29
2022-12-24T23:57:25.584Z,4.46
